createdAt,value
2018-09-15T00:00:56.324Z,99.99
2018-09-15T00:01:56.347Z,99.99
2018-09-15T00:02:56.321Z,99.99
2018-09-15T00:03:56.346Z,99.99
2018-09-15T00:04:56.319Z,99.99
2018-09-15T00:05:56.317Z,99.99
2018-09-15T00:06:56.315Z,99.99
2018-09-15T00:07:56.319Z,99.99
2018-09-15T00:08:56.342Z,99.99
2018-09-15T00:09:56.317Z,99.99
2018-09-15T00:10:56.313Z,99.99
2018-09-15T00:11:56.313Z,99.99
2018-09-15T00:12:56.343Z,99.99
2018-09-15T00:13:56.312Z,99.99
2018-09-15T00:14:56.311Z,99.99
2018-09-15T00:15:56.312Z,99.99
2018-09-15T00:16:56.309Z,99.99
2018-09-15T00:17:56.344Z,99.99
2018-09-15T00:18:56.345Z,99.99
2018-09-15T00:19:56.311Z,99.99
2018-09-15T00:20:56.310Z,99.99
2018-09-15T00:21:56.308Z,99.99
2018-09-15T00:22:56.342Z,99.99
2018-09-15T00:23:56.330Z,99.99
2018-09-15T00:24:56.303Z,99.99
2018-09-15T00:25:56.311Z,99.99
2018-09-15T00:26:56.309Z,99.99
2018-09-15T00:27:56.303Z,99.99
2018-09-15T00:28:56.325Z,99.99
2018-09-15T00:29:56.301Z,99.99
2018-09-15T00:30:56.307Z,99.99
2018-09-15T00:31:56.298Z,99.99
2018-09-15T00:32:56.333Z,99.99
2018-09-15T00:33:56.304Z,99.99
2018-09-15T00:34:56.300Z,99.99
2018-09-15T00:35:56.299Z,99.99
2018-09-15T00:36:56.295Z,99.99
2018-09-15T00:37:56.324Z,99.99
2018-09-15T00:38:56.327Z,99.99
2018-09-15T00:39:56.300Z,99.99
2018-09-15T00:40:56.296Z,99.99
2018-09-15T00:41:56.406Z,99.99
2018-09-15T00:42:56.314Z,99.99
2018-09-15T00:43:56.294Z,99.99
2018-09-15T00:44:56.288Z,99.99
2018-09-15T00:45:56.285Z,99.99
2018-09-15T00:46:56.295Z,99.99
2018-09-15T00:47:56.314Z,99.99
2018-09-15T00:48:56.286Z,99.99
2018-09-15T00:49:56.281Z,99.99
2018-09-15T00:50:56.285Z,99.99
2018-09-15T00:51:56.291Z,99.99
2018-09-15T00:52:56.309Z,99.99
2018-09-15T00:53:56.282Z,99.99
2018-09-15T00:54:56.282Z,99.99
2018-09-15T00:55:56.281Z,99.99
2018-09-15T00:56:56.279Z,99.99
2018-09-15T00:57:56.307Z,99.99
2018-09-15T00:58:56.279Z,99.99
2018-09-15T00:59:56.278Z,99.99
2018-09-15T01:00:56.276Z,99.99
2018-09-15T01:01:56.282Z,99.99
2018-09-15T01:02:56.304Z,99.99
2018-09-15T01:03:56.458Z,99.99
2018-09-15T01:04:56.276Z,99.99
2018-09-15T01:05:56.273Z,99.99
2018-09-15T01:06:56.275Z,99.99
2018-09-15T01:07:56.304Z,99.99
2018-09-15T01:08:56.273Z,99.99
2018-09-15T01:09:56.274Z,99.99
2018-09-15T01:10:56.264Z,99.99
2018-09-15T01:11:56.265Z,99.99
2018-09-15T01:12:56.301Z,99.99
2018-09-15T01:13:56.276Z,99.99
2018-09-15T01:14:56.294Z,99.99
2018-09-15T01:15:56.264Z,99.99
2018-09-15T01:16:56.265Z,99.99
2018-09-15T01:17:56.265Z,99.99
2018-09-15T01:18:56.292Z,99.99
2018-09-15T01:19:56.263Z,99.99
2018-09-15T01:20:56.261Z,99.99
2018-09-15T01:21:56.262Z,99.99
2018-09-15T01:22:56.291Z,99.99
2018-09-15T01:23:56.262Z,99.99
2018-09-15T01:24:56.254Z,99.99
2018-09-15T01:25:56.263Z,99.99
2018-09-15T01:26:56.259Z,99.99
2018-09-15T01:27:56.288Z,99.99
2018-09-15T01:28:56.263Z,99.99
2018-09-15T01:29:56.259Z,99.99
2018-09-15T01:30:56.254Z,99.99
2018-09-15T01:31:56.255Z,99.99
2018-09-15T01:32:56.278Z,99.99
2018-09-15T01:33:56.259Z,99.99
2018-09-15T01:34:56.251Z,99.99
2018-09-15T01:35:56.256Z,99.99
2018-09-15T01:36:56.261Z,99.99
2018-09-15T01:37:56.286Z,99.99
2018-09-15T01:38:56.244Z,99.99
2018-09-15T01:39:56.243Z,99.99
2018-09-15T01:40:56.250Z,99.99
2018-09-15T01:41:56.252Z,99.99
2018-09-15T01:42:56.272Z,99.99
2018-09-15T01:43:56.438Z,99.99
2018-09-15T01:44:56.247Z,99.99
2018-09-15T01:45:56.244Z,99.99
2018-09-15T01:46:56.271Z,99.99
2018-09-15T01:47:56.240Z,99.99
2018-09-15T01:48:56.242Z,99.99
2018-09-15T01:49:56.240Z,99.99
2018-09-15T01:50:56.249Z,99.99
2018-09-15T01:51:56.271Z,99.99
2018-09-15T01:52:56.235Z,99.99
2018-09-15T01:53:56.238Z,99.99
2018-09-15T01:54:56.240Z,99.99
2018-09-15T01:55:56.239Z,99.99
2018-09-15T01:56:56.263Z,99.99
2018-09-15T01:57:56.238Z,99.99
2018-09-15T01:58:56.235Z,99.99
2018-09-15T01:59:56.228Z,99.99
2018-09-15T02:00:56.231Z,99.99
2018-09-15T02:01:56.268Z,99.99
2018-09-15T02:02:56.228Z,99.99
2018-09-15T02:03:56.228Z,99.99
2018-09-15T02:04:56.249Z,99.99
2018-09-15T02:05:56.229Z,99.99
2018-09-15T02:06:56.254Z,99.99
2018-09-15T02:07:56.228Z,99.99
2018-09-15T02:08:56.224Z,99.99
2018-09-15T02:09:56.227Z,99.99
2018-09-15T02:10:56.228Z,99.99
2018-09-15T02:11:56.253Z,99.99
2018-09-15T02:12:56.257Z,99.99
2018-09-15T02:13:56.226Z,99.99
2018-09-15T02:14:56.222Z,99.99
2018-09-15T02:15:56.226Z,99.99
2018-09-15T02:16:56.221Z,99.99
2018-09-15T02:17:56.250Z,99.99
2018-09-15T02:18:56.216Z,99.99
2018-09-15T02:19:56.219Z,99.99
2018-09-15T02:20:56.218Z,99.99
2018-09-15T02:21:56.219Z,99.99
2018-09-15T02:22:56.304Z,99.99
2018-09-15T02:23:56.215Z,99.99
2018-09-15T02:24:56.214Z,99.99
2018-09-15T02:25:56.216Z,99.99
2018-09-15T02:26:56.216Z,99.99
2018-09-15T02:27:56.241Z,99.99
2018-09-15T02:28:56.237Z,99.99
2018-09-15T02:29:56.210Z,99.99
2018-09-15T02:30:56.211Z,99.99
2018-09-15T02:31:56.207Z,99.99
2018-09-15T02:32:56.242Z,99.99
2018-09-15T02:33:56.206Z,99.99
2018-09-15T02:34:56.211Z,99.99
2018-09-15T02:35:56.207Z,99.99
2018-09-15T02:36:56.201Z,99.99
2018-09-15T02:37:56.229Z,99.99
2018-09-15T02:38:56.201Z,99.99
2018-09-15T02:39:56.205Z,99.99
2018-09-15T02:40:56.198Z,99.99
2018-09-15T02:41:56.209Z,99.99
2018-09-15T02:42:56.226Z,99.99
2018-09-15T02:43:56.196Z,99.99
2018-09-15T02:44:56.191Z,99.99
2018-09-15T02:45:56.198Z,99.99
2018-09-15T02:46:56.195Z,99.99
2018-09-15T02:47:56.223Z,99.99
2018-09-15T02:48:56.191Z,99.99
2018-09-15T02:49:56.197Z,99.99
2018-09-15T02:50:56.188Z,99.99
2018-09-15T02:51:56.186Z,99.99
2018-09-15T02:52:56.215Z,99.99
2018-09-15T02:53:56.188Z,99.99
2018-09-15T02:54:56.277Z,99.99
2018-09-15T02:55:56.187Z,99.99
2018-09-15T02:56:56.189Z,99.99
2018-09-15T02:57:56.209Z,99.99
2018-09-15T02:58:56.188Z,99.99
2018-09-15T02:59:56.184Z,99.99
2018-09-15T03:00:56.181Z,99.99
2018-09-15T03:01:56.177Z,99.99
2018-09-15T03:02:56.205Z,99.99
2018-09-15T03:03:56.177Z,99.99
2018-09-15T03:04:56.174Z,99.99
2018-09-15T03:05:56.174Z,99.99
2018-09-15T03:06:56.178Z,99.99
2018-09-15T03:07:56.198Z,99.99
2018-09-15T03:08:56.174Z,99.99
2018-09-15T03:09:56.178Z,99.99
2018-09-15T03:10:56.228Z,99.99
2018-09-15T03:11:56.163Z,99.99
2018-09-15T03:12:56.194Z,99.99
2018-09-15T03:13:56.167Z,99.99
2018-09-15T03:14:56.167Z,99.99
2018-09-15T03:15:56.164Z,99.99
2018-09-15T03:16:56.195Z,99.99
2018-09-15T03:17:56.159Z,99.99
2018-09-15T03:18:56.231Z,99.99
2018-09-15T03:19:56.160Z,99.99
2018-09-15T03:20:56.160Z,99.99
2018-09-15T03:21:56.190Z,99.99
2018-09-15T03:22:56.155Z,99.99
2018-09-15T03:23:56.167Z,99.99
2018-09-15T03:24:56.152Z,99.99
2018-09-15T03:25:56.153Z,99.99
2018-09-15T03:26:56.183Z,99.99
2018-09-15T03:27:56.149Z,99.99
2018-09-15T03:28:56.149Z,99.99
2018-09-15T03:29:56.151Z,99.99
2018-09-15T03:30:56.159Z,99.99
2018-09-15T03:31:56.174Z,99.99
2018-09-15T03:32:56.146Z,99.99
2018-09-15T03:33:56.142Z,99.99
2018-09-15T03:34:56.141Z,99.99
2018-09-15T03:35:56.146Z,99.99
2018-09-15T03:36:56.169Z,99.99
2018-09-15T03:37:56.138Z,99.99
2018-09-15T03:38:56.136Z,99.99
2018-09-15T03:39:56.131Z,99.99
2018-09-15T03:40:56.132Z,99.99
2018-09-15T03:41:56.164Z,99.99
2018-09-15T03:42:56.129Z,99.99
2018-09-15T03:43:56.128Z,99.99
2018-09-15T03:44:56.157Z,99.99
2018-09-15T03:45:56.128Z,99.99
2018-09-15T03:46:56.127Z,99.99
2018-09-15T03:47:56.149Z,99.99
2018-09-15T03:48:56.121Z,99.99
2018-09-15T03:49:56.132Z,99.99
2018-09-15T03:50:56.117Z,99.99
2018-09-15T03:51:56.147Z,99.99
2018-09-15T03:52:56.141Z,99.99
2018-09-15T03:53:56.113Z,99.99
2018-09-15T03:54:56.108Z,99.99
2018-09-15T03:55:56.109Z,99.99
2018-09-15T03:56:56.108Z,99.99
2018-09-15T03:57:56.130Z,99.99
2018-09-15T03:58:56.110Z,99.99
2018-09-15T03:59:56.122Z,99.99
2018-09-15T04:00:56.097Z,99.99
2018-09-15T04:01:56.102Z,99.99
2018-09-15T04:02:56.124Z,99.99
2018-09-15T04:03:56.100Z,99.99
2018-09-15T04:04:56.091Z,99.99
2018-09-15T04:05:56.092Z,99.99
2018-09-15T04:06:56.087Z,99.99
2018-09-15T04:07:56.118Z,99.99
2018-09-15T04:08:56.088Z,99.99
2018-09-15T04:09:56.111Z,99.99
2018-09-15T04:10:56.084Z,99.99
2018-09-15T04:11:56.077Z,99.99
2018-09-15T04:12:56.080Z,99.99
2018-09-15T04:13:56.103Z,99.99
2018-09-15T04:14:56.075Z,99.99
2018-09-15T04:15:56.069Z,99.99
2018-09-15T04:16:56.068Z,99.99
2018-09-15T04:17:56.069Z,99.99
2018-09-15T04:18:56.099Z,99.99
2018-09-15T04:19:56.068Z,99.99
2018-09-15T04:20:56.061Z,99.99
2018-09-15T04:21:56.057Z,99.99
2018-09-15T04:22:56.084Z,99.99
2018-09-15T04:23:56.058Z,99.99
2018-09-15T04:24:56.058Z,99.99
2018-09-15T04:25:56.080Z,99.99
2018-09-15T04:26:56.051Z,99.99
2018-09-15T04:27:56.045Z,99.99
2018-09-15T04:28:56.073Z,99.99
2018-09-15T04:29:56.045Z,99.99
2018-09-15T04:30:56.039Z,99.99
2018-09-15T04:31:56.045Z,99.99
2018-09-15T04:32:56.039Z,99.99
2018-09-15T04:33:56.062Z,99.99
2018-09-15T04:34:56.038Z,99.99
2018-09-15T04:35:56.037Z,99.99
2018-09-15T04:36:56.028Z,99.99
2018-09-15T04:37:56.057Z,99.99
2018-09-15T04:38:56.031Z,99.99
2018-09-15T04:39:56.032Z,99.99
2018-09-15T04:40:56.027Z,99.99
2018-09-15T04:41:56.024Z,99.99
2018-09-15T04:42:56.053Z,99.99
2018-09-15T04:43:56.025Z,99.99
2018-09-15T04:44:56.025Z,99.99
2018-09-15T04:45:56.050Z,99.99
2018-09-15T04:46:56.032Z,99.99
2018-09-15T04:47:56.013Z,99.99
2018-09-15T04:48:56.051Z,99.99
2018-09-15T04:49:56.006Z,99.99
2018-09-15T04:50:56.008Z,99.99
2018-09-15T04:51:56.005Z,99.99
2018-09-15T04:52:56.009Z,99.99
2018-09-15T04:53:56.033Z,99.99
2018-09-15T04:54:56.002Z,99.99
2018-09-15T04:55:56.000Z,99.99
2018-09-15T04:56:55.999Z,99.99
2018-09-15T04:57:56.025Z,99.99
2018-09-15T04:58:56.091Z,99.99
2018-09-15T04:59:55.995Z,99.99
2018-09-15T05:00:55.993Z,99.99
2018-09-15T05:01:55.991Z,99.99
2018-09-15T05:02:56.014Z,99.99
2018-09-15T05:03:55.986Z,99.99
2018-09-15T05:04:55.983Z,99.99
2018-09-15T05:05:55.986Z,99.99
2018-09-15T05:06:55.983Z,99.99
2018-09-15T05:07:56.002Z,99.99
2018-09-15T05:08:55.983Z,99.99
2018-09-15T05:09:55.978Z,99.99
2018-09-15T05:10:55.975Z,99.99
2018-09-15T05:11:55.977Z,99.99
2018-09-15T05:12:56.059Z,99.99
2018-09-15T05:13:55.974Z,99.99
2018-09-15T05:14:55.971Z,99.99
2018-09-15T05:15:55.972Z,99.99
2018-09-15T05:16:55.968Z,99.99
2018-09-15T05:17:55.999Z,99.99
2018-09-15T05:18:55.965Z,99.99
2018-09-15T05:19:55.964Z,99.99
2018-09-15T05:20:55.956Z,99.99
2018-09-15T05:21:55.992Z,99.99
2018-09-15T05:22:55.963Z,99.99
2018-09-15T05:23:55.988Z,99.99
2018-09-15T05:24:55.956Z,99.99
2018-09-15T05:25:55.965Z,99.99
2018-09-15T05:26:55.953Z,99.99
2018-09-15T05:27:55.980Z,99.99
2018-09-15T05:28:55.974Z,99.99
2018-09-15T05:29:55.951Z,99.99
2018-09-15T05:30:55.962Z,99.99
2018-09-15T05:31:58.443Z,99.99
2018-09-15T05:33:00.742Z,99.99
2018-09-15T05:33:58.805Z,99.99
2018-09-15T05:35:02.273Z,99.99
2018-09-15T05:35:58.072Z,99.99
2018-09-15T05:36:55.943Z,99.99
2018-09-15T05:37:55.976Z,99.99
2018-09-15T05:39:01.271Z,99.99
2018-09-15T05:40:00.834Z,99.99
2018-09-15T05:40:55.936Z,99.99
2018-09-15T05:41:59.302Z,99.99
2018-09-15T05:43:10.290Z,99.99
2018-09-15T05:44:19.010Z,99.99
2018-09-15T05:44:55.940Z,99.99
2018-09-15T05:45:55.947Z,99.99
2018-09-15T05:46:58.781Z,99.99
2018-09-15T05:47:55.962Z,99.99
2018-09-15T05:49:03.293Z,99.99
2018-09-15T05:50:00.123Z,99.99
2018-09-15T05:50:57.129Z,99.99
2018-09-15T05:51:55.941Z,99.99
2018-09-15T05:52:56.881Z,99.99
2018-09-15T05:53:56.050Z,99.99
2018-09-15T05:54:56.152Z,99.99
2018-09-15T05:56:00.801Z,99.99
2018-09-15T05:56:55.930Z,99.99
2018-09-15T05:57:55.956Z,99.99
2018-09-15T05:58:55.949Z,99.99
2018-09-15T05:59:55.934Z,99.99
2018-09-15T06:00:55.927Z,99.99
2018-09-15T06:01:56.793Z,99.99
2018-09-15T06:02:55.979Z,99.99
2018-09-15T06:03:55.925Z,99.99
2018-09-15T06:04:56.026Z,99.99
2018-09-15T06:05:55.922Z,99.99
2018-09-15T06:06:55.988Z,99.99
2018-09-15T06:07:55.956Z,99.99
2018-09-15T06:08:55.917Z,99.99
2018-09-15T06:09:55.920Z,99.99
2018-09-15T06:10:55.917Z,99.10
2018-09-15T06:11:55.912Z,97.56
2018-09-15T06:12:55.953Z,97.47
2018-09-15T06:13:55.913Z,96.99
2018-09-15T06:14:55.914Z,96.32
2018-09-15T06:15:55.915Z,95.84
2018-09-15T06:16:55.916Z,95.94
2018-09-15T06:17:55.937Z,95.56
2018-09-15T06:18:55.911Z,95.17
2018-09-15T06:19:55.906Z,95.36
2018-09-15T06:20:55.904Z,95.27
2018-09-15T06:21:55.908Z,95.22
2018-09-15T06:22:55.938Z,94.45
2018-09-15T06:23:55.906Z,92.68
2018-09-15T06:24:56.066Z,91.14
2018-09-15T06:25:55.902Z,90.28
2018-09-15T06:27:02.907Z,90.47
2018-09-15T06:27:58.755Z,88.94
2018-09-15T06:29:03.268Z,88.31
2018-09-15T06:29:57.875Z,87.49
2018-09-15T06:30:58.922Z,86.44
2018-09-15T06:31:56.237Z,85.38
2018-09-15T06:34:00.765Z,84.37
2018-09-15T06:34:57.528Z,84.37
2018-09-15T06:35:58.756Z,84.75
2018-09-15T06:36:56.263Z,83.16
2018-09-15T06:38:02.848Z,83.54
2018-09-15T06:39:01.768Z,82.78
2018-09-15T06:39:57.595Z,81.34
2018-09-15T06:40:56.842Z,82.01
2018-09-15T06:41:58.278Z,81.53
2018-09-15T06:42:55.956Z,80.76
2018-09-15T06:43:56.717Z,80.32
2018-09-15T06:45:02.819Z,80.13
2018-09-15T06:46:00.320Z,80.42
2018-09-15T06:46:58.607Z,80.99
2018-09-15T06:47:55.964Z,79.52
2018-09-15T06:48:55.954Z,80.61
2018-09-15T06:49:55.934Z,80.66
2018-09-15T06:50:55.943Z,80.09
2018-09-15T06:51:55.940Z,80.09
2018-09-15T06:52:55.937Z,81.24
2018-09-15T06:53:55.984Z,80.09
2018-09-15T06:54:55.945Z,80.51
2018-09-15T06:55:55.944Z,79.88
2018-09-15T06:56:55.947Z,78.25
2018-09-15T06:57:55.946Z,77.67
2018-09-15T06:58:55.983Z,77.76
2018-09-15T06:59:55.947Z,77.23
2018-09-15T07:00:55.975Z,77.23
2018-09-15T07:01:55.973Z,75.98
2018-09-15T07:02:55.960Z,75.69
2018-09-15T07:03:55.987Z,74.29
2018-09-15T07:04:55.964Z,73.09
2018-09-15T07:05:55.963Z,73.03
2018-09-15T07:06:56.031Z,72.55
2018-09-15T07:07:55.965Z,71.88
2018-09-15T07:08:55.997Z,71.59
2018-09-15T07:09:55.976Z,71.40
2018-09-15T07:10:55.981Z,71.62
2018-09-15T07:11:55.984Z,70.76
2018-09-15T07:12:56.033Z,70.47
2018-09-15T07:13:56.023Z,69.99
2018-09-15T07:14:55.993Z,70.02
2018-09-15T07:15:55.995Z,69.83
2018-09-15T07:16:56.005Z,69.67
2018-09-15T07:17:56.031Z,68.32
2018-09-15T07:18:56.013Z,68.61
2018-09-15T07:19:56.106Z,68.07
2018-09-15T07:20:56.024Z,67.40
2018-09-15T07:21:56.022Z,66.62
2018-09-15T07:22:56.054Z,66.43
2018-09-15T07:23:56.030Z,66.43
2018-09-15T07:24:56.038Z,66.82
2018-09-15T07:25:56.064Z,66.04
2018-09-15T07:26:56.047Z,66.56
2018-09-15T07:27:56.078Z,65.78
2018-09-15T07:28:56.060Z,66.04
2018-09-15T07:29:56.059Z,65.11
2018-09-15T07:30:56.068Z,65.30
2018-09-15T07:31:56.105Z,65.30
2018-09-15T07:32:56.112Z,64.53
2018-09-15T07:33:56.085Z,64.28
2018-09-15T07:34:56.152Z,62.60
2018-09-15T07:35:56.099Z,64.15
2018-09-15T07:36:56.107Z,64.34
2018-09-15T07:37:56.135Z,64.53
2018-09-15T07:38:56.119Z,64.02
2018-09-15T07:39:56.129Z,63.47
2018-09-15T07:40:56.130Z,64.34
2018-09-15T07:41:56.138Z,62.60
2018-09-15T07:42:56.173Z,62.41
2018-09-15T07:43:56.150Z,63.57
2018-09-15T07:44:56.162Z,64.53
2018-09-15T07:45:56.185Z,64.72
2018-09-15T07:46:56.170Z,63.18
2018-09-15T07:47:56.210Z,62.89
2018-09-15T07:48:56.186Z,63.47
2018-09-15T07:49:56.200Z,62.89
2018-09-15T07:50:56.194Z,62.89
2018-09-15T07:51:56.213Z,62.15
2018-09-15T07:52:56.247Z,61.38
2018-09-15T07:53:56.226Z,60.73
2018-09-15T07:54:56.235Z,60.38
2018-09-15T07:55:56.247Z,59.70
2018-09-15T07:56:56.251Z,60.28
2018-09-15T07:57:56.390Z,59.22
2018-09-15T07:58:56.272Z,58.42
2018-09-15T07:59:56.276Z,59.93
2018-09-15T08:00:56.284Z,60.86
2018-09-15T08:01:56.305Z,61.54
2018-09-15T08:02:56.324Z,60.86
2018-09-15T08:03:56.305Z,61.99
2018-09-15T08:04:56.467Z,62.83
2018-09-15T08:05:56.322Z,63.15
2018-09-15T08:06:56.336Z,61.99
2018-09-15T08:07:56.365Z,61.99
2018-09-15T08:08:56.376Z,61.10
2018-09-15T08:09:56.357Z,61.93
2018-09-15T08:10:56.372Z,63.41
2018-09-15T08:11:56.374Z,62.63
2018-09-15T08:12:56.413Z,61.74
2018-09-15T08:13:56.396Z,61.44
2018-09-15T08:14:56.402Z,59.42
2018-09-15T08:15:56.408Z,59.42
2018-09-15T08:16:56.414Z,59.45
2018-09-15T08:17:56.453Z,58.77
2018-09-15T08:18:56.435Z,58.65
2018-09-15T08:19:56.442Z,58.29
2018-09-15T08:20:56.443Z,58.55
2018-09-15T08:21:56.459Z,58.65
2018-09-15T08:22:56.500Z,58.72
2018-09-15T08:23:56.475Z,58.87
2018-09-15T08:24:56.483Z,57.49
2018-09-15T08:25:56.491Z,57.29
2018-09-15T08:26:56.499Z,58.75
2018-09-15T08:27:56.539Z,57.62
2018-09-15T08:28:56.517Z,58.10
2018-09-15T08:29:56.528Z,57.74
2018-09-15T08:30:56.543Z,56.10
2018-09-15T08:31:56.589Z,56.90
2018-09-15T08:32:56.580Z,56.13
2018-09-15T08:33:56.564Z,56.00
2018-09-15T08:34:56.576Z,53.88
2018-09-15T08:35:56.580Z,56.10
2018-09-15T08:36:56.621Z,56.10
2018-09-15T08:37:56.628Z,55.01
2018-09-15T08:38:56.612Z,56.07
2018-09-15T08:39:56.618Z,56.46
2018-09-15T08:40:56.633Z,57.29
2018-09-15T08:41:56.670Z,57.29
2018-09-15T08:42:56.685Z,57.14
2018-09-15T08:43:56.661Z,56.56
2018-09-15T08:44:57.457Z,57.54
2018-09-15T08:45:56.681Z,55.88
2018-09-15T08:46:56.717Z,56.74
2018-09-15T08:47:56.697Z,56.65
2018-09-15T08:48:56.710Z,57.04
2018-09-15T08:49:56.722Z,57.90
2018-09-15T08:50:56.731Z,56.94
2018-09-15T08:51:56.771Z,56.10
2018-09-15T08:52:56.751Z,55.94
2018-09-15T08:53:56.762Z,57.49
2018-09-15T08:54:56.769Z,57.78
2018-09-15T08:55:56.783Z,57.90
2018-09-15T08:56:56.823Z,57.14
2018-09-15T08:57:56.804Z,56.77
2018-09-15T08:58:56.820Z,55.45
2018-09-15T08:59:56.852Z,54.10
2018-09-15T09:00:56.833Z,53.61
2018-09-15T09:01:56.843Z,53.33
2018-09-15T09:02:56.890Z,53.91
2018-09-15T09:03:56.868Z,54.07
2018-09-15T09:04:56.877Z,55.98
2018-09-15T09:05:56.888Z,56.65
2018-09-15T09:06:56.897Z,57.04
2018-09-15T09:07:56.936Z,56.68
2018-09-15T09:08:56.921Z,55.45
2018-09-15T09:09:56.934Z,54.29
2018-09-15T09:10:56.945Z,54.14
2018-09-15T09:11:56.953Z,55.78
2018-09-15T09:12:56.993Z,55.04
2018-09-15T09:13:56.978Z,55.23
2018-09-15T09:14:56.989Z,53.91
2018-09-15T09:15:56.999Z,53.61
2018-09-15T09:16:57.014Z,52.84
2018-09-15T09:17:57.048Z,52.97
2018-09-15T09:18:57.036Z,52.29
2018-09-15T09:19:57.093Z,52.61
2018-09-15T09:20:57.062Z,52.36
2018-09-15T09:21:57.096Z,52.07
2018-09-15T09:22:57.082Z,52.17
2018-09-15T09:23:57.090Z,51.51
2018-09-15T09:24:57.227Z,51.65
2018-09-15T09:25:57.155Z,52.33
2018-09-15T09:26:57.289Z,52.14
2018-09-15T09:27:57.135Z,52.36
2018-09-15T09:28:57.151Z,51.51
2018-09-15T09:29:57.169Z,50.60
2018-09-15T09:30:57.226Z,49.46
2018-09-15T09:31:57.219Z,47.81
2018-09-15T09:32:57.200Z,46.83
2018-09-15T09:33:57.213Z,48.83
2018-09-15T09:34:57.234Z,48.52
2018-09-15T09:35:57.237Z,49.19
2018-09-15T09:36:57.276Z,48.32
2018-09-15T09:37:57.264Z,48.54
2018-09-15T09:38:57.276Z,48.57
2018-09-15T09:39:57.288Z,47.99
2018-09-15T09:40:57.297Z,48.61
2018-09-15T09:41:57.345Z,49.58
2018-09-15T09:42:57.334Z,48.81
2018-09-15T09:43:57.343Z,48.71
2018-09-15T09:44:57.349Z,49.51
2018-09-15T09:45:57.395Z,48.08
2018-09-15T09:46:57.387Z,46.92
2018-09-15T09:47:57.470Z,46.73
2018-09-15T09:48:57.410Z,47.38
2018-09-15T09:49:57.419Z,47.26
2018-09-15T09:50:57.432Z,47.60
2018-09-15T09:51:57.471Z,47.52
2018-09-15T09:52:57.459Z,46.58
2018-09-15T09:53:57.471Z,45.34
2018-09-15T09:54:57.492Z,44.98
2018-09-15T09:55:57.503Z,43.91
2018-09-15T09:56:57.539Z,43.04
2018-09-15T09:57:57.528Z,43.50
2018-09-15T09:58:57.540Z,43.87
2018-09-15T09:59:57.558Z,44.12
2018-09-15T10:00:57.568Z,46.44
2018-09-15T10:01:57.612Z,46.63
2018-09-15T10:02:57.605Z,46.53
2018-09-15T10:03:57.615Z,45.40
2018-09-15T10:04:57.625Z,46.66
2018-09-15T10:05:57.638Z,46.46
2018-09-15T10:06:57.719Z,45.05
2018-09-15T10:07:57.666Z,43.72
2018-09-15T10:08:57.685Z,42.72
2018-09-15T10:09:57.701Z,42.54
2018-09-15T10:10:57.714Z,42.75
2018-09-15T10:11:57.757Z,42.57
2018-09-15T10:12:57.743Z,41.70
2018-09-15T10:13:57.758Z,42.11
2018-09-15T10:14:57.769Z,40.91
2018-09-15T10:15:57.808Z,41.83
2018-09-15T10:16:57.830Z,44.06
2018-09-15T10:17:57.822Z,44.35
2018-09-15T10:18:57.840Z,43.68
2018-09-15T10:19:57.849Z,42.80
2018-09-15T10:20:57.866Z,42.34
2018-09-15T10:21:57.911Z,43.00
2018-09-15T10:22:57.904Z,43.04
2018-09-15T10:23:57.914Z,42.77
2018-09-15T10:24:57.933Z,41.45
2018-09-15T10:25:57.952Z,40.69
2018-09-15T10:26:57.988Z,39.62
2018-09-15T10:27:57.976Z,39.47
2018-09-15T10:28:57.994Z,38.87
2018-09-15T10:29:58.013Z,39.12
2018-09-15T10:30:58.033Z,39.78
2018-09-15T10:31:58.084Z,40.48
2018-09-15T10:32:58.061Z,39.78
2018-09-15T10:33:58.076Z,40.42
2018-09-15T10:34:58.094Z,41.00
2018-09-15T10:35:58.112Z,41.08
2018-09-15T10:36:58.156Z,43.34
2018-09-15T10:37:58.143Z,45.01
2018-09-15T10:38:58.166Z,44.45
2018-09-15T10:39:58.178Z,42.92
2018-09-15T10:40:58.191Z,41.68
2018-09-15T10:41:58.235Z,41.89
2018-09-15T10:42:58.223Z,40.95
2018-09-15T10:43:58.235Z,40.61
2018-09-15T10:44:58.251Z,41.41
2018-09-15T10:45:58.349Z,40.99
2018-09-15T10:46:58.316Z,42.92
2018-09-15T10:47:58.923Z,42.09
2018-09-15T10:48:58.928Z,40.95
2018-09-15T10:49:59.023Z,39.86
2018-09-15T10:50:58.924Z,40.75
2018-09-15T10:51:58.428Z,41.20
2018-09-15T10:52:58.381Z,40.59
2018-09-15T10:53:58.397Z,41.52
2018-09-15T10:54:58.410Z,42.80
2018-09-15T10:55:58.426Z,42.54
2018-09-15T10:56:58.460Z,42.54
2018-09-15T10:57:58.452Z,41.97
2018-09-15T10:59:00.300Z,40.83
2018-09-15T10:59:59.885Z,40.61
2018-09-15T11:00:59.344Z,41.39
2018-09-15T11:02:01.447Z,41.76
2018-09-15T11:03:01.025Z,42.59
2018-09-15T11:04:58.553Z,44.29
2018-09-15T11:05:58.635Z,44.56
2018-09-15T11:06:58.612Z,45.57
2018-09-15T11:07:58.750Z,46.44
2018-09-15T11:08:58.606Z,47.24
2018-09-15T11:09:59.483Z,47.22
2018-09-15T11:10:59.415Z,47.43
2018-09-15T11:11:58.674Z,47.53
2018-09-15T11:12:59.422Z,46.73
2018-09-15T11:13:58.663Z,47.41
2018-09-15T11:14:58.679Z,46.54
2018-09-15T11:15:58.684Z,47.48
2018-09-15T11:16:58.720Z,47.87
2018-09-15T11:17:58.700Z,48.74
2018-09-15T11:18:58.702Z,48.54
2018-09-15T11:19:58.721Z,48.61
2018-09-15T11:20:58.729Z,48.74
2018-09-15T11:21:58.765Z,48.90
2018-09-15T11:22:58.777Z,48.81
2018-09-15T11:24:00.352Z,49.29
2018-09-15T11:25:00.357Z,48.93
2018-09-15T11:25:58.769Z,47.72
2018-09-15T11:26:59.409Z,46.90
2018-09-15T11:28:00.355Z,45.06
2018-09-15T11:29:01.426Z,45.23
2018-09-15T11:29:58.806Z,45.62
2018-09-15T11:30:58.811Z,45.89
2018-09-15T11:31:58.850Z,45.72
2018-09-15T11:32:58.856Z,44.84
2018-09-15T11:33:58.843Z,45.28
2018-09-15T11:34:58.847Z,43.85
2018-09-15T11:35:58.857Z,43.77
2018-09-15T11:36:58.902Z,43.58
2018-09-15T11:37:58.907Z,42.54
2018-09-15T11:38:58.892Z,40.96
2018-09-15T11:39:58.897Z,42.47
2018-09-15T11:40:58.913Z,43.98
2018-09-15T11:41:58.953Z,44.82
2018-09-15T11:42:58.958Z,45.67
2018-09-15T11:43:58.947Z,46.51
2018-09-15T11:44:58.957Z,47.96
2018-09-15T11:45:58.969Z,47.77
2018-09-15T11:46:58.977Z,46.37
2018-09-15T11:47:59.041Z,44.87
2018-09-15T11:48:59.937Z,43.95
2018-09-15T11:49:59.015Z,43.89
2018-09-15T11:50:59.022Z,43.68
2018-09-15T11:51:59.034Z,42.71
2018-09-15T11:52:59.864Z,43.02
2018-09-15T11:53:59.095Z,41.70
2018-09-15T11:54:59.069Z,40.25
2018-09-15T11:55:59.080Z,39.70
2018-09-15T11:56:59.096Z,39.61
2018-09-15T11:57:59.150Z,40.11
2018-09-15T11:58:59.124Z,38.95
2018-09-15T11:59:59.202Z,39.20
2018-09-15T12:00:59.148Z,40.01
2018-09-15T12:01:59.361Z,40.46
2018-09-15T12:02:59.201Z,41.33
2018-09-15T12:03:59.186Z,43.00
2018-09-15T12:04:59.278Z,41.20
2018-09-15T12:05:59.222Z,40.46
2018-09-15T12:06:59.262Z,38.17
2018-09-15T12:07:59.242Z,38.09
2018-09-15T12:08:59.260Z,37.92
2018-09-15T12:09:59.274Z,36.63
2018-09-15T12:10:59.283Z,37.51
2018-09-15T12:12:00.091Z,37.98
2018-09-15T12:12:59.318Z,39.18
2018-09-15T12:13:59.326Z,40.23
2018-09-15T12:15:00.003Z,39.55
2018-09-15T12:15:59.363Z,39.88
2018-09-15T12:16:59.379Z,39.24
2018-09-15T12:17:59.420Z,37.70
2018-09-15T12:18:59.407Z,36.65
2018-09-15T12:19:59.430Z,37.54
2018-09-15T12:20:59.436Z,37.06
2018-09-15T12:21:59.453Z,37.93
2018-09-15T12:22:59.497Z,37.41
2018-09-15T12:23:59.481Z,38.17
2018-09-15T12:24:59.500Z,38.27
2018-09-15T12:25:59.512Z,37.59
2018-09-15T12:26:59.538Z,38.23
2018-09-15T12:27:59.620Z,39.04
2018-09-15T12:28:59.569Z,40.23
2018-09-15T12:29:59.583Z,39.37
2018-09-15T12:30:59.598Z,39.37
2018-09-15T12:31:59.613Z,39.70
2018-09-15T12:32:59.660Z,38.93
2018-09-15T12:33:59.647Z,39.32
2018-09-15T12:34:59.668Z,38.83
2018-09-15T12:35:59.682Z,38.15
2018-09-15T12:36:59.699Z,38.70
2018-09-15T12:37:59.747Z,40.17
2018-09-15T12:38:59.733Z,39.69
2018-09-15T12:39:59.744Z,38.91
2018-09-15T12:40:59.768Z,38.32
2018-09-15T12:41:59.780Z,38.48
2018-09-15T12:42:59.830Z,39.32
2018-09-15T12:43:59.813Z,40.19
2018-09-15T12:44:59.997Z,41.47
2018-09-15T12:45:59.841Z,41.00
2018-09-15T12:46:59.861Z,39.45
2018-09-15T12:47:59.902Z,39.72
2018-09-15T12:49:00.530Z,40.42
2018-09-15T12:49:59.905Z,40.67
2018-09-15T12:50:59.924Z,41.88
2018-09-15T12:52:00.023Z,39.78
2018-09-15T12:52:59.993Z,39.34
2018-09-15T12:53:59.997Z,40.36
2018-09-15T12:54:59.983Z,41.36